Orondo, Washington
Current Conditions -  °F | °C
As of 2:55 AM on Sunday 26 Oct 2014 (Local Time) from KEAT Reporting Station
Light Rain Light Rain  
Wind Chill: 54°   Ceiling: Unl
Heat Index: 54°   Visibility: 10mi
Dew Point: 27°   Wind: 22mph
Humidity: 35%   Direction: 270°W
Pressure: 29.73"   Gusts: 32mph
Location:  47.63°N, 120.22°W
Report Text: KEAT 260955Z AUTO 27019G28KT 10SM -RA CLR 12/M03 A2973 RMK AO2 PK WND 28028/0952 RAE18B55 SLP067 P0000 T01221028
Loading
Personal Weather Stations






























Interactive Weather Map New forecast layout! Learn more

10-Day Weather Forecast

Advertisements
Track Severe Weather on mobile